Time;durP1;ratioP1;P1;durP2;ratioP2;P2;SDS_P1;SDS_P2;PMS_P1;PMS_P2;Temp;Humidity;BMP_temperature;BMP_pressure;BME280_temperature;BME280_humidity;BME280_pressure;Samples;Min_cycle;Max_cycle;Signal;HPM_P1;HPM_P2
2024/02/28 00:01:24;;;;;;;2.03;1.92;;;16.10;68.90;;;;;;5004576;28;20384;-83
2024/02/28 00:03:50;;;;;;;2.33;2.22;;;16.10;69.20;;;;;;5003733;28;20053;-83
2024/02/28 00:06:16;;;;;;;2.13;2.03;;;16.10;69.00;;;;;;5006579;28;20555;-83
2024/02/28 00:08:42;;;;;;;2.40;2.30;;;16.10;69.10;;;;;;5004912;28;20745;-83
2024/02/28 00:11:07;;;;;;;2.67;2.47;;;16.10;69.00;;;;;;5005588;28;20121;-82
2024/02/28 00:13:33;;;;;;;2.22;2.10;;;16.10;69.10;;;;;;5005028;28;20109;-81
2024/02/28 00:15:59;;;;;;;2.05;1.90;;;16.10;69.20;;;;;;5005630;28;20125;-82
2024/02/28 00:18:24;;;;;;;2.00;1.90;;;16.10;69.20;;;;;;5015198;28;20061;-81
2024/02/28 00:20:50;;;;;;;1.92;1.83;;;16.00;69.00;;;;;;5002925;28;20045;-82
2024/02/28 00:23:15;;;;;;;2.35;2.25;;;16.10;69.20;;;;;;5009689;28;20049;-82
2024/02/28 00:25:41;;;;;;;1.95;1.85;;;16.10;69.30;;;;;;5001305;28;20049;-82
2024/02/28 00:28:06;;;;;;;1.98;1.88;;;16.10;69.10;;;;;;5002441;28;20119;-82
2024/02/28 00:30:32;;;;;;;2.28;2.00;;;16.00;69.10;;;;;;5003007;28;20046;-82
2024/02/28 00:32:59;;;;;;;2.05;1.95;;;16.00;69.20;;;;;;5002699;28;20072;-82
2024/02/28 00:35:24;;;;;;;2.20;2.10;;;16.00;69.30;;;;;;5007734;28;20065;-81
2024/02/28 00:37:50;;;;;;;2.25;1.85;;;16.00;69.20;;;;;;5019071;28;20527;-83
2024/02/28 00:40:15;;;;;;;2.17;2.08;;;16.00;69.20;;;;;;5009066;28;20511;-82
2024/02/28 00:42:41;;;;;;;3.70;2.28;;;16.00;69.30;;;;;;5005401;28;20140;-82
2024/02/28 00:45:08;;;;;;;2.00;1.90;;;16.00;69.30;;;;;;5006642;28;20081;-82
2024/02/28 00:47:34;;;;;;;2.10;2.00;;;16.00;69.20;;;;;;5006712;28;20073;-81
2024/02/28 00:49:59;;;;;;;2.13;2.03;;;16.00;69.30;;;;;;5007649;28;20582;-83
2024/02/28 00:52:25;;;;;;;1.98;1.88;;;16.00;69.30;;;;;;5004226;28;20050;-81
2024/02/28 00:54:51;;;;;;;1.92;1.83;;;16.00;69.20;;;;;;5009348;28;20426;-81
2024/02/28 00:57:16;;;;;;;2.58;2.40;;;16.00;69.30;;;;;;5007420;28;20141;-81
2024/02/28 00:59:42;;;;;;;2.10;2.00;;;16.00;69.20;;;;;;5006637;28;20038;-82
2024/02/28 01:02:08;;;;;;;2.15;2.05;;;15.90;69.30;;;;;;5009247;28;20052;-81
2024/02/28 01:04:34;;;;;;;2.10;2.00;;;16.00;69.30;;;;;;5006104;28;20462;-82
2024/02/28 01:06:59;;;;;;;2.22;2.13;;;15.90;69.30;;;;;;5006170;28;20045;-81
2024/02/28 01:09:25;;;;;;;2.30;2.20;;;15.90;69.20;;;;;;5007771;28;20038;-82
2024/02/28 01:11:50;;;;;;;2.40;2.30;;;15.90;69.20;;;;;;5008936;28;20581;-82
2024/02/28 01:14:16;;;;;;;2.53;2.33;;;15.90;69.20;;;;;;5008712;28;20034;-83
2024/02/28 01:16:41;;;;;;;2.10;2.00;;;15.90;69.20;;;;;;5006732;28;20045;-81
2024/02/28 01:19:07;;;;;;;2.35;2.25;;;15.90;69.20;;;;;;5011142;28;20103;-81
2024/02/28 01:21:33;;;;;;;2.20;2.10;;;15.90;69.10;;;;;;5002296;28;20073;-82
2024/02/28 01:23:58;;;;;;;2.42;2.28;;;15.90;69.20;;;;;;5001698;28;20045;-82
2024/02/28 01:26:24;;;;;;;2.53;1.83;;;15.90;69.20;;;;;;5010959;28;20060;-81
2024/02/28 01:28:49;;;;;;;2.10;2.00;;;15.90;69.20;;;;;;5007798;28;20506;-82
2024/02/28 01:31:15;;;;;;;1.67;1.58;;;15.90;69.10;;;;;;5006035;28;20529;-81
2024/02/28 01:33:41;;;;;;;1.75;1.65;;;15.90;69.20;;;;;;5003160;28;20038;-82
2024/02/28 01:36:07;;;;;;;1.90;1.80;;;15.90;69.10;;;;;;5009353;28;20064;-81
2024/02/28 01:38:32;;;;;;;2.10;2.00;;;15.90;69.10;;;;;;4999543;28;20041;-81
2024/02/28 01:40:58;;;;;;;2.53;2.33;;;15.90;69.20;;;;;;5007018;28;20107;-83
2024/02/28 01:43:23;;;;;;;2.13;2.03;;;15.90;69.10;;;;;;5019296;28;20458;-82
2024/02/28 01:45:50;;;;;;;2.03;1.83;;;15.80;69.20;;;;;;5004117;28;20115;-83
2024/02/28 01:48:15;;;;;;;1.80;1.70;;;15.90;69.20;;;;;;5003847;28;20049;-82
2024/02/28 01:50:41;;;;;;;1.85;1.75;;;15.90;69.10;;;;;;5015239;28;20042;-82
2024/02/28 01:53:08;;;;;;;1.90;1.80;;;15.90;69.10;;;;;;5003494;28;20708;-82
2024/02/28 01:55:37;;;;;;;1.60;1.50;;;15.90;69.10;;;;;;5005648;28;20054;-81
2024/02/28 01:58:05;;;;;;;1.80;1.70;;;15.80;69.10;;;;;;4999787;28;20632;-81
2024/02/28 02:00:32;;;;;;;1.75;1.65;;;15.80;69.00;;;;;;5005558;28;20046;-81
2024/02/28 02:02:57;;;;;;;1.70;1.60;;;15.80;69.10;;;;;;5002953;28;20093;-81
2024/02/28 02:05:23;;;;;;;2.00;1.90;;;15.80;69.10;;;;;;5023355;28;20411;-83
2024/02/28 02:07:49;;;;;;;1.73;1.63;;;15.80;69.00;;;;;;4998322;28;20037;-82
2024/02/28 02:10:14;;;;;;;1.95;1.85;;;15.80;69.00;;;;;;5004492;28;20038;-81
2024/02/28 02:12:40;;;;;;;1.75;1.65;;;15.80;69.00;;;;;;5006012;28;20050;-81
2024/02/28 02:15:06;;;;;;;1.85;1.70;;;15.80;69.10;;;;;;5006250;28;20038;-80
2024/02/28 02:17:31;;;;;;;2.05;1.95;;;15.80;69.00;;;;;;5006625;28;20176;-82
2024/02/28 02:19:57;;;;;;;2.00;1.90;;;15.80;69.00;;;;;;5007525;28;20045;-82
2024/02/28 02:22:23;;;;;;;1.70;1.60;;;15.80;69.00;;;;;;5016184;28;20496;-82
2024/02/28 02:24:48;;;;;;;1.55;1.45;;;15.80;69.10;;;;;;5022239;28;20511;-81
2024/02/28 02:27:14;;;;;;;1.52;1.42;;;15.80;69.80;;;;;;5003552;28;20042;-80
2024/02/28 02:29:39;;;;;;;1.50;1.40;;;15.80;69.00;;;;;;5008520;28;20042;-80
2024/02/28 02:32:05;;;;;;;1.75;1.65;;;15.80;69.00;;;;;;5008941;28;20129;-80
2024/02/28 02:34:31;;;;;;;1.73;1.63;;;15.80;68.90;;;;;;5004793;28;20495;-80
2024/02/28 02:36:56;;;;;;;1.60;1.50;;;15.80;69.00;;;;;;5007345;28;20096;-82
2024/02/28 02:39:22;;;;;;;1.10;1.10;;;15.80;69.00;;;;;;4987112;28;20070;-81
2024/02/28 02:41:47;;;;;;;1.52;1.38;;;15.80;69.00;;;;;;5003035;28;20041;-81
2024/02/28 02:44:13;;;;;;;1.48;1.40;;;15.80;69.00;;;;;;5006322;28;20034;-81
2024/02/28 02:46:39;;;;;;;1.60;1.50;;;15.80;69.10;;;;;;5015770;28;20042;-81
2024/02/28 02:49:04;;;;;;;1.70;1.60;;;15.70;69.00;;;;;;5019287;28;20050;-81
2024/02/28 02:51:30;;;;;;;1.48;1.38;;;15.70;69.40;;;;;;5006367;28;20389;-80
2024/02/28 02:53:55;;;;;;;1.75;1.65;;;15.70;69.10;;;;;;5017416;28;20046;-81
2024/02/28 02:56:21;;;;;;;1.45;1.40;;;15.70;69.00;;;;;;5006293;28;20054;-81
2024/02/28 02:58:47;;;;;;;1.65;1.55;;;15.70;69.00;;;;;;5002436;28;20133;-81
2024/02/28 03:01:12;;;;;;;1.75;1.65;;;15.70;69.00;;;;;;5003836;28;20050;-82
2024/02/28 03:03:38;;;;;;;1.48;1.38;;;15.70;69.00;;;;;;5003727;28;20080;-81
2024/02/28 03:06:05;;;;;;;1.45;1.35;;;15.70;69.10;;;;;;5006506;28;20088;-83
2024/02/28 03:08:30;;;;;;;2.40;1.70;;;15.70;69.00;;;;;;5003928;28;20045;-81
2024/02/28 03:10:56;;;;;;;1.60;1.38;;;15.70;69.00;;;;;;5003420;28;20050;-83
2024/02/28 03:13:22;;;;;;;1.35;1.30;;;15.70;68.90;;;;;;5004098;28;20033;-81
2024/02/28 03:15:48;;;;;;;1.13;1.13;;;15.70;69.00;;;;;;5016155;28;20077;-81
2024/02/28 03:18:13;;;;;;;1.20;1.20;;;15.70;68.90;;;;;;5002072;28;20713;-83
2024/02/28 03:20:39;;;;;;;1.50;1.40;;;15.70;69.00;;;;;;5002472;28;20049;-82
2024/02/28 03:23:06;;;;;;;1.55;1.45;;;15.70;69.00;;;;;;5004061;28;20468;-82
2024/02/28 03:25:32;;;;;;;1.35;1.25;;;15.70;68.90;;;;;;4984839;28;20518;-82
2024/02/28 03:27:59;;;;;;;1.30;1.20;;;15.70;68.90;;;;;;5002710;28;20053;-82
2024/02/28 03:30:25;;;;;;;1.30;1.30;;;15.70;68.90;;;;;;5003278;28;20606;-81
2024/02/28 03:32:50;;;;;;;1.15;1.15;;;15.70;69.60;;;;;;4984196;28;20124;-81
2024/02/28 03:35:16;;;;;;;1.55;1.45;;;15.70;68.90;;;;;;5004538;28;20065;-82
2024/02/28 03:37:41;;;;;;;1.40;1.30;;;15.70;68.90;;;;;;5014857;28;20459;-82
2024/02/28 03:40:07;;;;;;;1.42;1.35;;;15.70;68.80;;;;;;5020268;28;20416;-81
2024/02/28 03:42:33;;;;;;;1.35;1.27;;;15.70;68.80;;;;;;4983700;28;20034;-81
2024/02/28 03:44:58;;;;;;;1.27;1.17;;;15.70;68.80;;;;;;5004496;28;20072;-82
2024/02/28 03:47:24;;;;;;;1.15;1.05;;;15.70;69.00;;;;;;5003802;28;20219;-83
2024/02/28 03:49:50;;;;;;;1.25;1.23;;;15.70;68.90;;;;;;5017000;28;20093;-83
2024/02/28 03:52:16;;;;;;;1.45;1.40;;;15.70;68.90;;;;;;5000221;28;20037;-82
2024/02/28 03:54:44;;;;;;;1.40;1.30;;;15.60;68.80;;;;;;5003971;28;20049;-82
2024/02/28 03:57:10;;;;;;;1.23;1.10;;;15.70;69.00;;;;;;5010362;28;20034;-83
2024/02/28 03:59:36;;;;;;;1.00;1.00;;;15.70;68.90;;;;;;5004720;28;20037;-83
2024/02/28 04:02:01;;;;;;;1.20;1.20;;;15.70;68.90;;;;;;5003982;28;20570;-83
2024/02/28 04:04:27;;;;;;;1.40;1.30;;;15.70;68.80;;;;;;4999473;28;20595;-82
2024/02/28 04:06:52;;;;;;;1.00;1.00;;;15.70;68.90;;;;;;5002460;28;20092;-82
2024/02/28 04:09:18;;;;;;;1.00;1.00;;;15.70;69.00;;;;;;5005257;28;20045;-82
2024/02/28 04:11:44;;;;;;;1.42;1.33;;;15.70;68.80;;;;;;5002325;28;20068;-83
2024/02/28 04:14:09;;;;;;;1.05;1.05;;;15.60;68.80;;;;;;5011447;28;20038;-82
2024/02/28 04:16:40;;;;;;;1.08;1.08;;;15.70;68.90;;;;;;4995921;28;20499;-82
2024/02/28 04:19:05;;;;;;;1.00;1.00;;;15.60;68.80;;;;;;5010263;28;20753;-83
2024/02/28 04:21:31;;;;;;;1.25;1.20;;;15.60;68.80;;;;;;5012064;28;20549;-80
2024/02/28 04:23:57;;;;;;;1.00;1.00;;;15.60;68.80;;;;;;5011174;28;20048;-82
2024/02/28 04:26:22;;;;;;;1.27;1.20;;;15.60;68.80;;;;;;5021865;28;20049;-83
2024/02/28 04:28:48;;;;;;;1.63;1.52;;;15.60;68.80;;;;;;5009947;28;20468;-83
2024/02/28 04:31:13;;;;;;;1.08;1.08;;;15.60;68.80;;;;;;5009332;28;20046;-81
2024/02/28 04:33:39;;;;;;;1.15;1.15;;;15.60;68.80;;;;;;5005185;28;20068;-83
2024/02/28 04:36:05;;;;;;;1.40;1.30;;;15.60;68.90;;;;;;5008535;28;20068;-83
2024/02/28 04:38:30;;;;;;;1.00;1.00;;;15.60;68.90;;;;;;5021550;28;20046;-83
2024/02/28 04:40:56;;;;;;;1.42;1.30;;;15.60;68.80;;;;;;4996154;28;20050;-83
2024/02/28 04:43:21;;;;;;;2.45;1.58;;;15.60;69.00;;;;;;4992229;28;20038;-83
2024/02/28 04:45:47;;;;;;;1.25;1.25;;;15.60;68.90;;;;;;5020752;28;20333;-83
2024/02/28 04:48:12;;;;;;;1.30;1.20;;;15.60;69.00;;;;;;5009660;28;20075;-85
2024/02/28 04:50:38;;;;;;;1.05;1.05;;;15.60;69.00;;;;;;5011507;28;20048;-84
2024/02/28 04:53:03;;;;;;;1.10;1.10;;;15.60;69.00;;;;;;5012394;28;20533;-84
2024/02/28 04:55:29;;;;;;;1.23;1.13;;;15.60;68.90;;;;;;5010541;28;20034;-85
2024/02/28 04:57:55;;;;;;;1.15;1.05;;;15.60;69.10;;;;;;5010538;28;20092;-84
2024/02/28 05:00:20;;;;;;;1.35;1.25;;;15.60;68.90;;;;;;5008933;28;20068;-84
2024/02/28 05:02:46;;;;;;;1.00;1.00;;;15.60;69.10;;;;;;5010174;28;20053;-86
2024/02/28 05:05:11;;;;;;;0.95;0.95;;;15.60;69.10;;;;;;5010248;28;20129;-86
2024/02/28 05:07:37;;;;;;;0.95;0.90;;;15.60;69.10;;;;;;5010575;28;20038;-85
2024/02/28 05:10:03;;;;;;;1.10;0.98;;;15.60;69.00;;;;;;5011150;28;20491;-86
2024/02/28 05:12:28;;;;;;;0.80;0.80;;;15.60;69.00;;;;;;5007360;28;20049;-86
2024/02/28 05:14:54;;;;;;;0.98;0.98;;;15.60;69.20;;;;;;5010384;28;20106;-86
2024/02/28 05:17:19;;;;;;;0.73;0.73;;;15.60;69.10;;;;;;5012026;28;20060;-87
2024/02/28 05:19:45;;;;;;;0.90;0.90;;;15.60;69.10;;;;;;5009625;28;20041;-85
2024/02/28 05:22:11;;;;;;;1.00;1.00;;;15.60;69.20;;;;;;5009377;28;20038;-85
2024/02/28 05:24:37;;;;;;;0.98;0.98;;;15.60;69.20;;;;;;5006655;28;20041;-85
2024/02/28 05:27:02;;;;;;;0.80;0.80;;;15.60;69.20;;;;;;5005261;28;20124;-87
2024/02/28 05:29:28;;;;;;;0.90;0.90;;;15.60;69.10;;;;;;5005469;28;20041;-87
2024/02/28 05:31:53;;;;;;;0.93;0.93;;;15.60;69.20;;;;;;5005377;28;20108;-88
2024/02/28 05:34:19;;;;;;;0.90;0.90;;;15.60;69.30;;;;;;5004404;28;20835;-87
2024/02/28 05:36:45;;;;;;;0.75;0.75;;;15.60;69.10;;;;;;5002279;28;20042;-87
2024/02/28 05:39:10;;;;;;;0.95;0.85;;;15.60;69.20;;;;;;5007377;28;20565;-86
2024/02/28 05:41:36;;;;;;;0.80;0.80;;;15.60;69.30;;;;;;5020671;28;20497;-81
2024/02/28 05:44:01;;;;;;;1.25;1.17;;;15.60;69.20;;;;;;5004897;28;20080;-86
2024/02/28 05:46:27;;;;;;;1.00;1.00;;;15.60;69.20;;;;;;5003740;28;20396;-85
2024/02/28 05:48:52;;;;;;;0.88;0.88;;;15.60;69.30;;;;;;5005087;28;20060;-86
2024/02/28 05:51:18;;;;;;;0.93;0.93;;;15.50;69.40;;;;;;5005485;28;20073;-84
2024/02/28 05:53:44;;;;;;;0.90;0.90;;;15.50;69.40;;;;;;5009103;28;20087;-85
2024/02/28 05:56:13;;;;;;;0.70;0.70;;;15.60;69.40;;;;;;5007940;28;20092;-85
2024/02/28 05:58:45;;;;;;;0.95;0.95;;;15.50;69.30;;;;;;5004583;28;20061;-83
2024/02/28 06:01:11;;;;;;;0.75;0.75;;;15.60;70.10;;;;;;5002038;28;20046;-84
2024/02/28 06:03:37;;;;;;;0.73;0.73;;;15.50;69.40;;;;;;5018913;28;20109;-80
2024/02/28 06:06:04;;;;;;;0.60;0.60;;;15.60;69.40;;;;;;5007233;28;20077;-84
2024/02/28 06:08:32;;;;;;;0.85;0.85;;;15.50;69.40;;;;;;5007479;28;20045;-83
2024/02/28 06:10:58;;;;;;;0.70;0.70;;;15.60;69.50;;;;;;5006173;28;20148;-84
2024/02/28 06:13:23;;;;;;;0.60;0.60;;;15.50;69.40;;;;;;5005388;28;20133;-83
2024/02/28 06:15:49;;;;;;;0.60;0.60;;;15.50;69.50;;;;;;5005555;28;20076;-87
2024/02/28 06:18:14;;;;;;;0.80;0.80;;;15.50;69.40;;;;;;5006055;28;20053;-85
2024/02/28 06:20:40;;;;;;;0.95;0.75;;;15.50;69.50;;;;;;5006170;28;20899;-86
2024/02/28 06:23:05;;;;;;;1.33;0.90;;;15.60;69.70;;;;;;5006839;28;20042;-84
2024/02/28 06:25:33;;;;;;;1.10;1.08;;;15.60;69.50;;;;;;5002245;28;20042;-86
2024/02/28 06:27:59;;;;;;;0.80;0.80;;;15.60;69.60;;;;;;4998331;28;20050;-82
2024/02/28 06:30:25;;;;;;;0.80;0.80;;;15.60;69.60;;;;;;5004225;28;20034;-84
2024/02/28 06:32:51;;;;;;;0.70;0.70;;;15.60;69.60;;;;;;5005494;28;20136;-86
2024/02/28 06:35:17;;;;;;;0.80;0.80;;;15.60;70.10;;;;;;5007648;28;20037;-84
2024/02/28 06:37:48;;;;;;;1.17;0.80;;;15.60;69.80;;;;;;5006750;28;20100;-83
2024/02/28 06:40:13;;;;;;;1.05;0.70;;;15.60;70.00;;;;;;5004204;28;20049;-80
2024/02/28 06:42:39;;;;;;;0.90;0.80;;;15.60;70.20;;;;;;5002745;28;20038;-80
2024/02/28 06:45:05;;;;;;;2.00;1.02;;;15.60;70.40;;;;;;5004857;28;20119;-83
2024/02/28 06:47:32;;;;;;;2.25;0.90;;;15.60;70.50;;;;;;4999224;28;20101;-81
2024/02/28 06:49:58;;;;;;;0.73;0.73;;;15.60;70.20;;;;;;5005898;28;20124;-80
2024/02/28 06:52:23;;;;;;;1.00;1.00;;;15.60;70.40;;;;;;5019039;28;20038;-81
2024/02/28 06:54:49;;;;;;;0.63;0.63;;;15.60;70.60;;;;;;5002287;28;20050;-81
2024/02/28 06:57:14;;;;;;;2.13;0.95;;;15.60;70.50;;;;;;5005095;28;20046;-81
2024/02/28 06:59:40;;;;;;;1.17;0.70;;;15.60;70.50;;;;;;5003578;28;20081;-80
2024/02/28 07:02:06;;;;;;;0.88;0.77;;;15.60;70.60;;;;;;5005544;28;20708;-84
2024/02/28 07:04:31;;;;;;;0.85;0.85;;;15.60;70.90;;;;;;5007353;28;20218;-83
2024/02/28 07:06:57;;;;;;;0.80;0.80;;;15.60;70.70;;;;;;5001992;28;20049;-83
2024/02/28 07:09:25;;;;;;;0.80;0.80;;;15.60;70.70;;;;;;5004059;28;20513;-83
2024/02/28 07:11:51;;;;;;;0.93;0.90;;;15.60;70.60;;;;;;5002287;28;20054;-81
2024/02/28 07:14:16;;;;;;;0.80;0.80;;;15.60;70.60;;;;;;5014543;28;20039;-82
2024/02/28 07:16:43;;;;;;;0.70;0.70;;;15.60;70.80;;;;;;5002341;28;20054;-81
2024/02/28 07:19:09;;;;;;;0.80;0.80;;;15.60;70.70;;;;;;5004258;28;20610;-82
2024/02/28 07:21:36;;;;;;;1.73;0.75;;;15.60;71.00;;;;;;5003532;28;20136;-83
2024/02/28 07:24:04;;;;;;;1.17;1.05;;;15.70;71.10;;;;;;5001189;28;20192;-82
2024/02/28 07:26:30;;;;;;;3.35;0.77;;;15.70;71.10;;;;;;5003937;28;20056;-82
2024/02/28 07:28:55;;;;;;;0.93;0.80;;;15.70;71.30;;;;;;5006689;28;20045;-83
2024/02/28 07:31:22;;;;;;;0.80;0.80;;;15.70;71.10;;;;;;5006394;28;20045;-82
2024/02/28 07:33:47;;;;;;;0.88;0.88;;;15.70;71.00;;;;;;5007065;28;20096;-80
2024/02/28 07:36:13;;;;;;;1.05;0.60;;;15.70;71.20;;;;;;5004452;28;20045;-82
2024/02/28 07:38:40;;;;;;;0.70;0.70;;;15.70;71.10;;;;;;5006793;28;20054;-82
2024/02/28 07:41:06;;;;;;;0.70;0.70;;;15.70;71.10;;;;;;4988105;28;20108;-85
2024/02/28 07:43:36;;;;;;;1.63;1.00;;;15.70;71.30;;;;;;5019169;28;20057;-83
2024/02/28 07:46:11;;;;;;;1.48;0.88;;;15.60;71.30;;;;;;4999824;28;20132;-81
2024/02/28 07:48:38;;;;;;;0.60;0.60;;;15.60;71.10;;;;;;5002859;28;20045;-82
2024/02/28 07:51:07;;;;;;;0.90;0.90;;;15.60;71.10;;;;;;5017068;28;20057;-82
2024/02/28 07:53:32;;;;;;;0.80;0.80;;;15.60;71.10;;;;;;5002798;28;20469;-83
2024/02/28 07:55:58;;;;;;;0.80;0.80;;;15.60;71.20;;;;;;5006392;28;20041;-82
2024/02/28 07:58:24;;;;;;;3.95;1.10;;;15.60;71.40;;;;;;5014280;28;20104;-83
2024/02/28 08:00:50;;;;;;;0.98;0.80;;;15.60;71.40;;;;;;5002906;28;20049;-83
2024/02/28 08:03:16;;;;;;;0.55;0.55;;;15.70;71.60;;;;;;5003518;28;20045;-84
2024/02/28 08:05:43;;;;;;;0.60;0.60;;;15.60;72.30;;;;;;5001947;28;20041;-82
2024/02/28 08:08:09;;;;;;;1.00;0.80;;;15.60;71.50;;;;;;5005108;28;20950;-82
2024/02/28 08:10:37;;;;;;;0.82;0.82;;;15.60;71.40;;;;;;5020750;28;20062;-83
2024/02/28 08:13:07;;;;;;;0.85;0.70;;;15.60;71.60;;;;;;5003474;28;20042;-83
2024/02/28 08:15:33;;;;;;;0.95;0.90;;;15.60;71.30;;;;;;5017386;28;20049;-84
2024/02/28 08:17:58;;;;;;;1.10;1.00;;;15.70;71.50;;;;;;5003446;28;20087;-81
2024/02/28 08:20:24;;;;;;;0.80;0.80;;;15.60;71.50;;;;;;5008283;28;20111;-82
2024/02/28 08:22:52;;;;;;;0.80;0.80;;;15.60;71.50;;;;;;5003502;28;20164;-81
2024/02/28 08:25:18;;;;;;;0.82;0.70;;;15.60;71.60;;;;;;5004299;28;20418;-83
2024/02/28 08:27:43;;;;;;;1.30;0.93;;;15.60;71.60;;;;;;5003715;28;20539;-82
2024/02/28 08:30:09;;;;;;;2.20;1.13;;;15.60;71.60;;;;;;5004898;28;20069;-83
2024/02/28 08:32:35;;;;;;;1.88;1.05;;;15.60;72.00;;;;;;5004134;28;20132;-82
2024/02/28 08:35:01;;;;;;;0.90;0.90;;;15.60;71.50;;;;;;5003145;28;20463;-82
2024/02/28 08:37:28;;;;;;;1.65;1.00;;;15.60;71.50;;;;;;5006224;28;20069;-83
2024/02/28 08:39:57;;;;;;;1.25;1.02;;;15.70;71.50;;;;;;5001247;28;20072;-82
2024/02/28 08:42:28;;;;;;;1.63;1.10;;;15.60;71.50;;;;;;4983633;28;20057;-82
2024/02/28 08:44:54;;;;;;;1.02;1.00;;;15.60;71.40;;;;;;5002229;28;20054;-82
2024/02/28 08:47:29;;;;;;;0.85;0.82;;;15.60;71.50;;;;;;5005638;28;20049;-82
2024/02/28 08:49:54;;;;;;;0.80;0.68;;;15.60;71.50;;;;;;5002064;28;20088;-81
2024/02/28 08:52:20;;;;;;;0.85;0.85;;;15.70;71.50;;;;;;5004456;28;20459;-83
2024/02/28 08:54:47;;;;;;;0.68;0.65;;;15.60;71.50;;;;;;5016457;28;20041;-84
2024/02/28 08:57:12;;;;;;;0.80;0.80;;;15.70;71.60;;;;;;5000671;28;20034;-83
2024/02/28 08:59:39;;;;;;;1.23;1.13;;;15.60;71.50;;;;;;5010295;28;20112;-82
2024/02/28 09:02:05;;;;;;;1.40;0.90;;;15.70;71.50;;;;;;5007582;28;20034;-83
2024/02/28 09:04:31;;;;;;;0.90;0.90;;;15.70;71.70;;;;;;5008815;28;20066;-84
2024/02/28 09:06:57;;;;;;;0.90;0.80;;;15.60;71.50;;;;;;5007159;28;20522;-82
2024/02/28 09:09:22;;;;;;;0.80;0.80;;;15.70;71.70;;;;;;5008033;28;20403;-83
2024/02/28 09:11:48;;;;;;;0.88;0.88;;;15.60;71.60;;;;;;5006367;28;20141;-82
2024/02/28 09:14:13;;;;;;;1.00;0.90;;;15.70;71.60;;;;;;5008425;28;20133;-82
2024/02/28 09:16:39;;;;;;;0.60;0.60;;;15.70;71.80;;;;;;5006146;28;20042;-82
2024/02/28 09:19:04;;;;;;;1.98;0.77;;;15.70;71.70;;;;;;5014414;28;20033;-82
2024/02/28 09:21:30;;;;;;;1.00;1.00;;;15.70;71.70;;;;;;5005532;28;20041;-82
2024/02/28 09:23:56;;;;;;;1.13;1.13;;;15.70;71.70;;;;;;5004901;28;20461;-83
2024/02/28 09:26:21;;;;;;;1.00;0.90;;;15.70;71.90;;;;;;5009565;28;20066;-83
2024/02/28 09:28:47;;;;;;;0.82;0.80;;;15.70;71.90;;;;;;5022060;28;20049;-83
2024/02/28 09:31:12;;;;;;;0.70;0.70;;;15.70;72.00;;;;;;5007281;28;20046;-82
2024/02/28 09:33:38;;;;;;;0.95;0.80;;;15.60;71.90;;;;;;5005040;28;20503;-83
2024/02/28 09:36:04;;;;;;;0.80;0.80;;;15.70;72.00;;;;;;5003989;28;20416;-83
2024/02/28 09:38:32;;;;;;;0.95;0.80;;;15.60;71.90;;;;;;5008859;28;20048;-84
2024/02/28 09:40:58;;;;;;;0.88;0.85;;;15.60;72.70;;;;;;5006768;28;20098;-83
2024/02/28 09:43:31;;;;;;;0.88;0.80;;;15.70;72.10;;;;;;5021766;28;20046;-83
2024/02/28 09:46:03;;;;;;;0.73;0.73;;;15.70;72.10;;;;;;5003821;28;20074;-84
2024/02/28 09:48:29;;;;;;;0.77;0.77;;;15.70;72.10;;;;;;5018606;28;20756;-83
2024/02/28 09:50:55;;;;;;;0.80;0.75;;;15.70;72.00;;;;;;5014229;28;20226;-81
2024/02/28 09:53:21;;;;;;;0.98;0.98;;;15.70;72.10;;;;;;5009312;28;20044;-81
2024/02/28 09:55:47;;;;;;;0.80;0.80;;;15.70;72.10;;;;;;5006202;28;20136;-82
2024/02/28 09:58:13;;;;;;;0.73;0.73;;;15.70;72.10;;;;;;5016966;28;20049;-83
2024/02/28 10:00:38;;;;;;;0.70;0.70;;;15.70;72.10;;;;;;5004530;28;20060;-83
2024/02/28 10:03:04;;;;;;;0.60;0.60;;;15.70;72.10;;;;;;5003593;28;20072;-83
2024/02/28 10:05:30;;;;;;;0.60;0.60;;;15.70;72.10;;;;;;5005522;28;20523;-84
2024/02/28 10:07:56;;;;;;;0.80;0.80;;;15.70;72.20;;;;;;5007596;28;20050;-83
2024/02/28 10:10:22;;;;;;;0.60;0.60;;;15.70;72.10;;;;;;5001755;28;20583;-83
2024/02/28 10:12:47;;;;;;;0.95;0.80;;;15.70;72.10;;;;;;5005171;28;20112;-82
2024/02/28 10:15:13;;;;;;;0.70;0.70;;;15.70;72.00;;;;;;5018544;28;20407;-83
2024/02/28 10:17:39;;;;;;;0.95;0.65;;;15.70;72.10;;;;;;5006734;28;20058;-83
2024/02/28 10:20:05;;;;;;;0.60;0.57;;;15.70;72.10;;;;;;5003013;28;20038;-83
2024/02/28 10:22:35;;;;;;;0.73;0.73;;;15.70;72.00;;;;;;4989493;28;20046;-82
2024/02/28 10:25:00;;;;;;;0.93;0.93;;;15.70;72.10;;;;;;5002068;28;20507;-83
2024/02/28 10:27:26;;;;;;;0.73;0.73;;;15.70;72.00;;;;;;5020552;28;20033;-82
2024/02/28 10:29:51;;;;;;;0.60;0.60;;;15.70;72.10;;;;;;5001692;28;20042;-82
2024/02/28 10:32:17;;;;;;;0.60;0.60;;;15.70;72.00;;;;;;5021686;28;20488;-83
2024/02/28 10:34:43;;;;;;;0.60;0.60;;;15.70;72.00;;;;;;5017404;28;20636;-84
2024/02/28 10:37:08;;;;;;;0.55;0.55;;;15.70;72.00;;;;;;5016026;28;20060;-82
2024/02/28 10:39:34;;;;;;;0.70;0.70;;;15.70;72.10;;;;;;5004869;28;20037;-83
2024/02/28 10:42:00;;;;;;;0.70;0.70;;;15.70;72.10;;;;;;4985630;28;20022;-81
2024/02/28 10:44:26;;;;;;;0.52;0.52;;;15.70;72.00;;;;;;5003824;28;20456;-82
2024/02/28 10:46:52;;;;;;;0.50;0.50;;;15.70;72.00;;;;;;5003781;28;20065;-83
2024/02/28 10:49:17;;;;;;;0.45;0.45;;;15.70;72.00;;;;;;5008236;28;20054;-82
2024/02/28 10:51:45;;;;;;;0.50;0.50;;;15.70;72.10;;;;;;5006864;28;20060;-83
2024/02/28 10:54:13;;;;;;;0.50;0.50;;;15.70;72.10;;;;;;5002566;28;20034;-84
2024/02/28 10:56:40;;;;;;;0.50;0.50;;;15.70;72.10;;;;;;5004224;28;20040;-83
2024/02/28 10:59:07;;;;;;;0.60;0.60;;;15.70;72.10;;;;;;5008449;28;20514;-82
2024/02/28 11:01:36;;;;;;;0.60;0.60;;;15.70;72.30;;;;;;5017494;28;20443;-84
2024/02/28 11:04:02;;;;;;;0.52;0.52;;;15.70;72.10;;;;;;4982912;28;20403;-81
2024/02/28 11:06:28;;;;;;;0.50;0.50;;;15.70;72.10;;;;;;5017778;28;20574;-84
2024/02/28 11:08:54;;;;;;;3.30;1.48;;;15.70;72.30;;;;;;5000963;28;20034;-86
2024/02/28 11:11:20;;;;;;;7.85;4.07;;;15.70;72.20;;;;;;5003352;28;20537;-82
2024/02/28 11:13:53;;;;;;;6.70;3.22;;;15.90;71.90;;;;;;5019562;28;20062;-82
2024/02/28 11:16:26;;;;;;;4.68;2.60;;;15.90;71.50;;;;;;5004284;28;20034;-82
2024/02/28 11:18:52;;;;;;;3.28;1.90;;;15.90;71.60;;;;;;5014910;28;20479;-80
2024/02/28 11:21:18;;;;;;;2.25;1.77;;;16.00;71.30;;;;;;5005015;28;20067;-80
2024/02/28 11:23:47;;;;;;;2.65;2.05;;;16.10;71.40;;;;;;5005101;28;20046;-80
2024/02/28 11:26:13;;;;;;;34.90;22.15;;;16.10;71.60;;;;;;4988298;28;20042;-80
2024/02/28 11:28:39;;;;;;;26.90;16.92;;;16.10;71.80;;;;;;5002562;28;20594;-79
2024/02/28 11:31:05;;;;;;;23.70;15.65;;;16.20;71.70;;;;;;5005182;28;20080;-81
2024/02/28 11:33:33;;;;;;;17.13;11.40;;;16.20;71.90;;;;;;5005726;28;20038;-82
2024/02/28 11:35:58;;;;;;;12.38;11.07;;;16.20;72.30;;;;;;5001392;28;20040;-81
2024/02/28 11:38:27;;;;;;;11.10;9.05;;;16.30;72.20;;;;;;5004245;28;20035;-82
2024/02/28 11:40:53;;;;;;;8.07;7.28;;;16.40;71.90;;;;;;5002104;28;20037;-83
2024/02/28 11:43:19;;;;;;;7.15;6.50;;;16.50;71.60;;;;;;4981785;28;20457;-80
2024/02/28 11:45:46;;;;;;;6.95;6.35;;;16.40;71.50;;;;;;5001393;28;20053;-79
2024/02/28 11:48:15;;;;;;;7.10;6.00;;;16.40;71.60;;;;;;4997759;28;20504;-80
2024/02/28 11:50:41;;;;;;;8.45;5.70;;;16.40;71.60;;;;;;4994725;28;20065;-79
2024/02/28 11:53:09;;;;;;;6.03;5.43;;;16.40;71.40;;;;;;4995562;28;20928;-80
2024/02/28 11:55:35;;;;;;;6.88;5.60;;;16.40;71.30;;;;;;5000472;28;20067;-80
2024/02/28 11:58:01;;;;;;;9.70;5.10;;;16.40;71.50;;;;;;4996531;28;20594;-80
2024/02/28 12:00:27;;;;;;;6.50;5.30;;;16.50;71.20;;;;;;4994642;28;20519;-80
2024/02/28 12:02:53;;;;;;;6.38;4.82;;;16.50;71.40;;;;;;4999273;28;20044;-80
2024/02/28 12:05:19;;;;;;;6.28;4.57;;;16.40;71.30;;;;;;5011439;28;20042;-81
2024/02/28 12:07:45;;;;;;;4.43;4.03;;;16.50;71.40;;;;;;5000681;28;20390;-82
2024/02/28 12:10:11;;;;;;;4.70;4.30;;;16.50;71.40;;;;;;4997987;28;20143;-82
2024/02/28 12:12:38;;;;;;;4.50;4.10;;;16.50;71.40;;;;;;5001018;28;20388;-83
2024/02/28 12:15:05;;;;;;;4.65;4.25;;;16.50;71.30;;;;;;4999569;28;20038;-85
2024/02/28 12:17:30;;;;;;;5.00;4.30;;;16.60;71.10;;;;;;4998586;28;20092;-85
2024/02/28 12:19:56;;;;;;;4.43;4.13;;;16.60;71.30;;;;;;5004546;28;20041;-87
2024/02/28 12:22:21;;;;;;;4.63;4.00;;;16.60;71.10;;;;;;5005076;28;20115;-86
2024/02/28 12:24:47;;;;;;;4.00;3.60;;;16.60;70.80;;;;;;4997333;28;20140;-85
2024/02/28 12:27:13;;;;;;;3.75;3.47;;;16.70;70.80;;;;;;4980188;28;20522;-84
2024/02/28 12:29:38;;;;;;;3.85;3.55;;;16.70;70.70;;;;;;5011307;28;20045;-83
2024/02/28 12:32:04;;;;;;;4.28;3.83;;;16.80;70.70;;;;;;4995163;28;20100;-85
2024/02/28 12:34:30;;;;;;;3.85;3.45;;;16.80;70.50;;;;;;5016726;28;20138;-83
2024/02/28 12:36:55;;;;;;;3.35;3.13;;;16.80;70.40;;;;;;5002401;28;20133;-83
2024/02/28 12:39:22;;;;;;;4.18;3.20;;;16.80;70.40;;;;;;4986592;28;20042;-85